Time;durP1;ratioP1;P1;durP2;ratioP2;P2;SDS_P1;SDS_P2;PMS_P1;PMS_P2;Temp;Humidity;BMP_temperature;BMP_pressure;BME280_temperature;BME280_humidity;BME280_pressure;Samples;Min_cycle;Max_cycle;Signal;HPM_P1;HPM_P2
2022/01/27 00:02:54;;;;;;;27.5;15.4;;;;;;;-0.05;75.69336;947.7266;;;;
2022/01/27 00:05:15;;;;;;;24;14;;;;;;;-0.07;75.52441;947.5936;;;;
2022/01/27 00:08:09;;;;;;;22.5;12.7;;;;;;;-0.46;76.92383;947.6334;;;;
2022/01/27 00:10:45;;;;;;;20;12.2;;;;;;;-0.3;76.27246;947.5569;;;;
2022/01/27 00:13:09;;;;;;;18.7;11;;;;;;;-0.69;77.57031;947.6053;;;;
2022/01/27 00:15:47;;;;;;;18.5;11.6;;;;;;;-0.83;78.15723;947.6318;;;;
2022/01/27 00:18:29;;;;;;;18;11.8;;;;;;;-0.6;76.85254;947.5272;;;;
2022/01/27 00:20:53;;;;;;;19.1;12.1;;;;;;;-0.43;75.77148;947.6116;;;;
2022/01/27 00:23:37;;;;;;;19.8;13.2;;;;;;;-0.24;75.37109;947.6339;;;;
2022/01/27 00:26:05;;;;;;;17;9.7;;;;;;;-0.81;77.7041;947.5259;;;;
2022/01/27 00:28:30;;;;;;;17;10;;;;;;;-0.77;78.13379;947.6133;;;;
2022/01/27 00:30:58;;;;;;;14.7;9.1;;;;;;;-0.68;77.22754;947.5894;;;;
2022/01/27 00:33:23;;;;;;;16.3;9.5;;;;;;;-0.63;77.13672;947.597;;;;
2022/01/27 00:35:51;;;;;;;14.6;9.9;;;;;;;-0.5;75.99219;947.6323;;;;
2022/01/27 00:38:17;;;;;;;14.9;8.9;;;;;;;-0.46;75.45508;947.6703;;;;
2022/01/27 00:40:42;;;;;;;16.2;10.4;;;;;;;-0.11;74.66992;947.6689;;;;
2022/01/27 00:43:07;;;;;;;14.7;9.3;;;;;;;-0.25;74.86816;947.6331;;;;
2022/01/27 00:45:33;;;;;;;15.7;10;;;;;;;-0.08;74.34082;947.6426;;;;
2022/01/27 00:48:01;;;;;;;15.5;9.2;;;;;;;-0.25;74.54395;947.5953;;;;
2022/01/27 00:50:22;;;;;;;17;9.9;;;;;;;-0.15;74.11816;947.5974;;;;
2022/01/27 00:52:50;;;;;;;16.3;9.6;;;;;;;-0.18;74.44727;947.5952;;;;
2022/01/27 00:55:14;;;;;;;14.7;9.1;;;;;;;-0.07;73.95215;947.5375;;;;
2022/01/27 00:57:52;;;;;;;16.6;9.4;;;;;;;-0.27;74.09766;947.6256;;;;
2022/01/27 01:00:04;;;;;;;13.9;8.5;;;;;;;-0.25;73.96484;947.5984;;;;
2022/01/27 01:02:38;;;;;;;14.2;8.7;;;;;;;-0.14;73.75195;947.4954;;;;
2022/01/27 01:05:06;;;;;;;14;8;;;;;;;-0.4;74.97656;947.5992;;;;
2022/01/27 01:07:19;;;;;;;12.2;8.1;;;;;;;-0.49;75.16992;947.6267;;;;
2022/01/27 01:10:45;;;;;;;15.7;8.3;;;;;;;-0.46;75.01953;947.5799;;;;
2022/01/27 01:14:45;;;;;;;13.2;7.6;;;;;;;-0.61;75.53906;947.4689;;;;
2022/01/27 01:17:09;;;;;;;12.7;7.9;;;;;;;-0.7;75.35547;947.4487;;;;
2022/01/27 01:19:39;;;;;;;13.2;8.3;;;;;;;-0.68;75.11426;947.5455;;;;
2022/01/27 01:22:12;;;;;;;12;7.6;;;;;;;-0.73;74.60449;947.6094;;;;
2022/01/27 01:29:29;;;;;;;10.3;6.6;;;;;;;-0.71;74.47754;947.5839;;;;
2022/01/27 01:31:48;;;;;;;11.9;6.7;;;;;;;-0.58;74.35352;947.515;;;;
2022/01/27 01:34:12;;;;;;;10;5.8;;;;;;;-0.69;74.50293;947.5008;;;;
2022/01/27 01:36:36;;;;;;;9.4;6.3;;;;;;;-0.7;74.73242;947.613;;;;
2022/01/27 01:38:49;;;;;;;10.4;6.2;;;;;;;-0.72;74.62793;947.5553;;;;
2022/01/27 01:41:14;;;;;;;8.1;5.5;;;;;;;-0.57;74.07715;947.593;;;;
2022/01/27 01:43:40;;;;;;;8;5.3;;;;;;;-0.68;74.33691;947.6516;;;;
2022/01/27 01:46:05;;;;;;;7.3;4.9;;;;;;;-0.65;74.15332;947.6664;;;;
2022/01/27 01:48:30;;;;;;;7.5;4.9;;;;;;;-0.54;74.03809;947.6797;;;;
2022/01/27 01:50:57;;;;;;;8.7;4.8;;;;;;;-0.75;74.11133;947.6406;;;;
2022/01/27 01:53:23;;;;;;;7;4.4;;;;;;;-0.87;74.56738;947.66;;;;
2022/01/27 01:55:48;;;;;;;7.7;4.4;;;;;;;-0.87;75.04688;947.6172;;;;
2022/01/27 01:58:14;;;;;;;6.2;4.1;;;;;;;-0.94;74.90234;947.5715;;;;
2022/01/27 02:00:40;;;;;;;6.9;4.6;;;;;;;-1.02;74.85449;947.5361;;;;
2022/01/27 02:03:06;;;;;;;6.2;4.1;;;;;;;-0.94;74.55664;947.5499;;;;
2022/01/27 02:05:38;;;;;;;7.4;4.5;;;;;;;-1.35;75.57227;947.3771;;;;
2022/01/27 02:08:02;;;;;;;7.1;4.5;;;;;;;-1.35;76.37012;947.3887;;;;
2022/01/27 02:10:37;;;;;;;5.7;4.2;;;;;;;-1.3;76.08203;947.4294;;;;
2022/01/27 02:20:02;;;;;;;6.2;3.4;;;;;;;-2.04;79.63965;947.1858;;;;
2022/01/27 02:22:30;;;;;;;5.5;3.5;;;;;;;-2.19;80.61914;947.1719;;;;
2022/01/27 02:24:55;;;;;;;5.6;3.4;;;;;;;-1.88;79.51465;947.1674;;;;
2022/01/27 02:27:25;;;;;;;6.6;4.1;;;;;;;-1.92;79.76172;947.1767;;;;
2022/01/27 02:29:50;;;;;;;6.7;3.5;;;;;;;-1.59;78.38086;947.1799;;;;
2022/01/27 02:32:17;;;;;;;5.9;3.8;;;;;;;-1.47;77.23828;947.1533;;;;
2022/01/27 02:34:42;;;;;;;5.4;3.6;;;;;;;-1.27;76.10938;947.3024;;;;
2022/01/27 02:37:07;;;;;;;5;3.5;;;;;;;-1.06;75.45801;947.2626;;;;
2022/01/27 02:39:32;;;;;;;6;3.6;;;;;;;-1.02;75.15332;947.2434;;;;
2022/01/27 02:41:59;;;;;;;5;3.3;;;;;;;-1.04;75.59473;947.2629;;;;
2022/01/27 02:44:30;;;;;;;6.3;3.8;;;;;;;-1.31;75.37891;947.2805;;;;
2022/01/27 02:46:55;;;;;;;6.3;3.9;;;;;;;-1.38;75.83203;947.3214;;;;
2022/01/27 02:49:21;;;;;;;6.7;4;;;;;;;-1.39;75.54395;947.3153;;;;
2022/01/27 02:51:46;;;;;;;5.1;3.6;;;;;;;-1.41;76.00684;947.2927;;;;
2022/01/27 02:54:14;;;;;;;6.2;4;;;;;;;-1.62;77.48828;947.2775;;;;
2022/01/27 02:56:46;;;;;;;7.5;4;;;;;;;-1.66;77.03711;947.2885;;;;
2022/01/27 02:59:04;;;;;;;5.4;3.6;;;;;;;-1.65;77.54785;947.2831;;;;
2022/01/27 03:01:29;;;;;;;6.8;3.9;;;;;;;-1.49;76.51172;947.4559;;;;
2022/01/27 03:03:56;;;;;;;6.7;3.5;;;;;;;-1.36;75.18262;947.4258;;;;
2022/01/27 03:06:21;;;;;;;7.3;3.7;;;;;;;-1.38;75.2666;947.3547;;;;
2022/01/27 03:08:46;;;;;;;8.2;4.3;;;;;;;-1.78;76.27148;947.4592;;;;
2022/01/27 03:11:13;;;;;;;4.9;3.3;;;;;;;-1.92;77.2666;947.4871;;;;
2022/01/27 03:13:38;;;;;;;5.5;3.4;;;;;;;-1.85;77.23535;947.4411;;;;
2022/01/27 03:16:08;;;;;;;3.9;2.5;;;;;;;-2.15;78.69727;947.4556;;;;
2022/01/27 03:18:34;;;;;;;5.2;3.2;;;;;;;-2.07;78.33594;947.4105;;;;
2022/01/27 03:21:00;;;;;;;4.4;3;;;;;;;-2.17;79.01563;947.435;;;;
2022/01/27 03:23:26;;;;;;;4.7;2.9;;;;;;;-2.12;78.6709;947.4281;;;;
2022/01/27 03:25:51;;;;;;;4.7;3.1;;;;;;;-2.07;78.52441;947.3792;;;;
2022/01/27 03:28:19;;;;;;;4.9;2.8;;;;;;;-2.13;78.69141;947.325;;;;
2022/01/27 03:30:42;;;;;;;4.9;2.8;;;;;;;-2.37;79.55371;947.4075;;;;
2022/01/27 03:33:08;;;;;;;17.2;7.7;;;;;;;-2.5;80.21484;947.3228;;;;
2022/01/27 03:35:33;;;;;;;19.7;10.3;;;;;;;-2.41;79.90137;947.3412;;;;
2022/01/27 03:37:59;;;;;;;14.6;7.4;;;;;;;-2.09;78.90918;947.2661;;;;
2022/01/27 03:40:24;;;;;;;9.1;5.1;;;;;;;-2.28;79.02832;947.1395;;;;
2022/01/27 03:43:03;;;;;;;6.1;3.6;;;;;;;-1.96;78.0791;947.2129;;;;
2022/01/27 03:45:15;;;;;;;3.8;2.7;;;;;;;-2.11;78.17188;947.1685;;;;
2022/01/27 03:47:41;;;;;;;3.7;2.8;;;;;;;-1.92;77.45508;947.2161;;;;
2022/01/27 03:50:07;;;;;;;3.2;2.4;;;;;;;-2.07;77.90332;947.1936;;;;
2022/01/27 03:52:33;;;;;;;3.4;2.5;;;;;;;-2.2;78.17871;947.1612;;;;
2022/01/27 03:54:58;;;;;;;2.9;2.1;;;;;;;-2.33;78.64355;947.1727;;;;
2022/01/27 03:57:24;;;;;;;2.2;1.7;;;;;;;-2.41;79.09277;947.1744;;;;
2022/01/27 03:59:49;;;;;;;4.3;2.1;;;;;;;-2.6;79.86328;947.1564;;;;
2022/01/27 04:02:35;;;;;;;3.5;2;;;;;;;-2.71;80.79492;947.0025;;;;
2022/01/27 04:04:57;;;;;;;3.3;2;;;;;;;-2.82;80.95117;947.0402;;;;
2022/01/27 04:07:22;;;;;;;2.6;1.9;;;;;;;-2.9;81.7334;947.0367;;;;
2022/01/27 04:09:48;;;;;;;2;1.7;;;;;;;-2.91;81.65234;946.8911;;;;
2022/01/27 04:12:14;;;;;;;2.2;1.8;;;;;;;-2.88;81.90137;946.8244;;;;
2022/01/27 04:14:39;;;;;;;4.3;2.3;;;;;;;-2.81;81.69629;946.8792;;;;
2022/01/27 04:17:08;;;;;;;7;3;;;;;;;-2.78;81.53516;946.7935;;;;
2022/01/27 04:19:33;;;;;;;6.2;3.2;;;;;;;-2.78;81.22559;946.796;;;;
2022/01/27 04:21:59;;;;;;;6.9;3.6;;;;;;;-2.64;80.76465;946.7712;;;;
2022/01/27 04:24:24;;;;;;;6.2;3.7;;;;;;;-2.47;79.92285;946.8347;;;;
2022/01/27 04:26:58;;;;;;;7.3;4;;;;;;;-2.78;80.60547;946.8537;;;;
2022/01/27 04:29:19;;;;;;;7.8;3.8;;;;;;;-2.96;81.96289;946.824;;;;
2022/01/27 04:31:43;;;;;;;5.8;3.1;;;;;;;-2.84;81.45703;946.8433;;;;
2022/01/27 04:34:08;;;;;;;8.1;3.8;;;;;;;-3.07;82.19824;946.8184;;;;
2022/01/27 04:36:35;;;;;;;9.9;5.7;;;;;;;-3.26;83.01172;946.7623;;;;
2022/01/27 04:39:08;;;;;;;8.3;5.4;;;;;;;-3.24;83.01563;946.6584;;;;
2022/01/27 04:41:34;;;;;;;11;5.2;;;;;;;-3.21;82.90137;946.8206;;;;
2022/01/27 04:43:57;;;;;;;6.3;4.4;;;;;;;-3;82.11035;946.8564;;;;
2022/01/27 04:46:25;;;;;;;4.7;3.5;;;;;;;-2.89;81.31348;946.8203;;;;
2022/01/27 04:48:45;;;;;;;7.2;3.7;;;;;;;-2.73;80.61426;946.8233;;;;
2022/01/27 04:51:10;;;;;;;5.6;4.1;;;;;;;-2.71;81.19336;946.8491;;;;
2022/01/27 04:53:36;;;;;;;5.5;4.4;;;;;;;-2.76;81.50586;946.8956;;;;
2022/01/27 04:55:59;;;;;;;5;4.1;;;;;;;-2.68;81.31152;946.9286;;;;
2022/01/27 04:58:31;;;;;;;59.7;46.4;;;;;;;-2.68;81.53027;946.9662;;;;
2022/01/27 05:00:49;;;;;;;9.5;8.5;;;;;;;-2.64;81.05273;946.9655;;;;
2022/01/27 05:03:23;;;;;;;8;6.9;;;;;;;-2.78;81.04883;946.8901;;;;
2022/01/27 05:05:42;;;;;;;5.6;3.8;;;;;;;-2.99;81.9248;946.7263;;;;
2022/01/27 05:08:15;;;;;;;5.3;4.3;;;;;;;-3.21;83.15527;946.7785;;;;
2022/01/27 05:10:34;;;;;;;7.4;5.8;;;;;;;-2.96;82.56055;946.7977;;;;
2022/01/27 05:13:06;;;;;;;6.8;5.5;;;;;;;-2.8;81.53027;946.8209;;;;
2022/01/27 05:15:24;;;;;;;7.7;5.6;;;;;;;-2.68;80.91113;946.681;;;;
2022/01/27 05:17:53;;;;;;;11;7.4;;;;;;;-2.79;80.8916;946.7969;;;;
2022/01/27 05:20:17;;;;;;;7.6;6.1;;;;;;;-2.76;80.77344;946.7925;;;;
2022/01/27 05:22:44;;;;;;;6.5;4.2;;;;;;;-3;80.77246;946.7444;;;;
2022/01/27 05:25:10;;;;;;;6.2;3.9;;;;;;;-3.04;81.10645;946.7861;;;;
2022/01/27 05:27:37;;;;;;;6.7;4.4;;;;;;;-3.07;81.1582;946.8945;;;;
2022/01/27 05:30:02;;;;;;;5.6;4.3;;;;;;;-2.98;80.93066;946.9317;;;;
2022/01/27 05:32:27;;;;;;;6.7;4.7;;;;;;;-3.08;81.36523;947.0209;;;;
2022/01/27 05:34:52;;;;;;;7.3;4.3;;;;;;;-3.21;81.85059;946.9732;;;;
2022/01/27 05:37:18;;;;;;;4.9;3.8;;;;;;;-3.18;82.50684;946.9994;;;;
2022/01/27 05:39:43;;;;;;;6.5;4.4;;;;;;;-3.14;82.60352;947.0158;;;;
2022/01/27 05:42:11;;;;;;;4.3;3.3;;;;;;;-3.11;82.22168;946.9168;;;;
2022/01/27 05:44:36;;;;;;;4.5;3.4;;;;;;;-3.12;82.65137;947.0588;;;;
2022/01/27 05:47:02;;;;;;;4.4;3.7;;;;;;;-2.99;81.57227;946.9885;;;;
2022/01/27 05:49:27;;;;;;;5;3.9;;;;;;;-2.91;81.42188;946.8899;;;;
2022/01/27 05:51:54;;;;;;;5.8;4.4;;;;;;;-3.02;82.18457;946.8178;;;;
2022/01/27 05:54:18;;;;;;;6.1;4.5;;;;;;;-2.88;81.37012;946.9133;;;;
2022/01/27 05:56:44;;;;;;;10.4;6.6;;;;;;;-2.85;80.87793;946.8889;;;;
2022/01/27 05:59:09;;;;;;;13.7;8.4;;;;;;;-2.89;80.79297;946.8621;;;;
2022/01/27 06:01:36;;;;;;;10.7;6.9;;;;;;;-2.8;80.7998;946.8798;;;;
2022/01/27 06:04:02;;;;;;;23.5;12.7;;;;;;;-3.01;80.78027;946.8387;;;;
2022/01/27 06:06:29;;;;;;;24.9;13.7;;;;;;;-2.99;80.68555;946.8758;;;;
2022/01/27 06:08:54;;;;;;;16.3;10.9;;;;;;;-2.91;80.52441;946.8625;;;;
2022/01/27 06:11:20;;;;;;;14.4;9.7;;;;;;;-2.77;79.60059;946.8528;;;;
2022/01/27 06:13:45;;;;;;;7.7;6.2;;;;;;;-3.11;80.89551;946.775;;;;
2022/01/27 06:16:16;;;;;;;7;4.8;;;;;;;-3.13;81.6123;946.6733;;;;
2022/01/27 06:18:46;;;;;;;10.9;7.3;;;;;;;-3.27;82.45508;946.8416;;;;
2022/01/27 06:21:13;;;;;;;8.7;6.2;;;;;;;-3.22;82.43262;946.7606;;;;
2022/01/27 06:23:40;;;;;;;9.2;5.9;;;;;;;-3.43;83.07715;946.6828;;;;
2022/01/27 06:26:05;;;;;;;9.2;6.7;;;;;;;-3.22;83.00781;946.6484;;;;
2022/01/27 06:28:34;;;;;;;8.7;6.4;;;;;;;-3.2;82.55859;946.6599;;;;
2022/01/27 06:30:59;;;;;;;8.6;5.8;;;;;;;-3.13;81.48926;946.567;;;;
2022/01/27 06:33:28;;;;;;;18.4;10.9;;;;;;;-3.27;81.58203;946.5105;;;;
2022/01/27 06:35:59;;;;;;;7.7;4.7;;;;;;;-3.15;81.46289;946.5359;;;;
2022/01/27 06:38:28;;;;;;;7.7;5;;;;;;;-3.11;80.72754;946.4694;;;;
2022/01/27 06:40:54;;;;;;;11.1;7.4;;;;;;;-3.05;80.50977;946.3978;;;;
2022/01/27 06:43:20;;;;;;;10.6;7.4;;;;;;;-2.95;80.06348;946.4487;;;;
2022/01/27 06:45:45;;;;;;;10.2;7;;;;;;;-2.99;80.8623;946.4012;;;;
2022/01/27 06:48:11;;;;;;;7.8;5.7;;;;;;;-3.21;81.22949;946.3571;;;;
2022/01/27 06:50:38;;;;;;;7.9;5.4;;;;;;;-3.22;81.54883;946.3372;;;;
2022/01/27 06:53:03;;;;;;;8.9;5.5;;;;;;;-3.22;81.99121;946.426;;;;
2022/01/27 06:55:28;;;;;;;11.6;7.8;;;;;;;-3.01;81.43457;946.4013;;;;
2022/01/27 06:57:56;;;;;;;7.7;5.6;;;;;;;-2.84;80.64844;946.3661;;;;
2022/01/27 07:00:21;;;;;;;9.5;5.8;;;;;;;-2.72;80.27441;946.3028;;;;
2022/01/27 07:02:49;;;;;;;6.9;4.8;;;;;;;-2.68;80.23535;946.3733;;;;
2022/01/27 07:05:17;;;;;;;7;5.4;;;;;;;-2.58;79.69141;946.3772;;;;
2022/01/27 07:07:39;;;;;;;9.8;6.7;;;;;;;-2.52;79.3916;946.4877;;;;
2022/01/27 07:10:04;;;;;;;12;7.6;;;;;;;-2.55;79.56445;946.4822;;;;
2022/01/27 07:12:29;;;;;;;13.5;8.4;;;;;;;-2.56;79.75098;946.4603;;;;
2022/01/27 07:14:55;;;;;;;12.8;8.5;;;;;;;-2.74;80.16992;946.4064;;;;
2022/01/27 07:17:24;;;;;;;14.9;8.9;;;;;;;-2.72;80.15137;946.3923;;;;
2022/01/27 07:19:49;;;;;;;17.4;11;;;;;;;-2.54;79.61035;946.3969;;;;
2022/01/27 07:22:14;;;;;;;16.9;10.8;;;;;;;-2.57;79.46094;946.3005;;;;
2022/01/27 07:24:39;;;;;;;14.4;10.5;;;;;;;-2.27;78.58691;946.4458;;;;
2022/01/27 07:27:07;;;;;;;17.7;11.3;;;;;;;-2.11;77.75098;946.4508;;;;
2022/01/27 07:29:32;;;;;;;17.8;10.6;;;;;;;-2.16;77.78906;946.3762;;;;
2022/01/27 07:31:58;;;;;;;19.7;11.6;;;;;;;-2.12;77.88184;946.4401;;;;
2022/01/27 07:34:23;;;;;;;14.5;9.2;;;;;;;-1.74;76.9541;946.3779;;;;
2022/01/27 07:36:54;;;;;;;22.1;13.3;;;;;;;-1.66;76.31445;946.394;;;;
2022/01/27 07:39:16;;;;;;;33.5;19.5;;;;;;;-1.63;75.71094;946.3176;;;;
2022/01/27 07:41:39;;;;;;;58.1;30.5;;;;;;;-1.31;75.41211;946.28;;;;
2022/01/27 07:44:04;;;;;;;27.1;15.6;;;;;;;-1.44;74.88965;946.2491;;;;
2022/01/27 07:46:29;;;;;;;23.5;14.1;;;;;;;-1.16;74.31836;946.1944;;;;
2022/01/27 07:48:56;;;;;;;22.3;11.9;;;;;;;-1.36;74.71582;946.1677;;;;
2022/01/27 07:51:22;;;;;;;19.2;10.4;;;;;;;-1.18;74.36816;946.0927;;;;
2022/01/27 07:53:47;;;;;;;14.9;9.3;;;;;;;-0.44;72.43164;946.0192;;;;
2022/01/27 07:56:12;;;;;;;23;13.5;;;;;;;-0.12;71.2832;946.1207;;;;
2022/01/27 07:58:40;;;;;;;34.1;17.2;;;;;;;-0.25;70.54883;945.9705;;;;
2022/01/27 08:01:03;;;;;;;37.2;19.3;;;;;;;-0.33;71.00488;945.9883;;;;
2022/01/27 08:03:29;;;;;;;26.9;15.8;;;;;;;0.13;69.94434;945.9361;;;;
2022/01/27 08:05:55;;;;;;;22.8;14.3;;;;;;;0.63;67.32617;945.9369;;;;
2022/01/27 08:08:21;;;;;;;16.2;10.5;;;;;;;0.7;67.62793;945.8823;;;;
2022/01/27 08:10:48;;;;;;;11.2;7.6;;;;;;;0.98;66.67871;945.7825;;;;
2022/01/27 08:13:14;;;;;;;14.2;9.9;;;;;;;1.26;64.96875;945.8688;;;;
2022/01/27 08:15:40;;;;;;;16.1;11.4;;;;;;;2.41;63.40918;945.9328;;;;
2022/01/27 08:18:08;;;;;;;15.1;10.8;;;;;;;4.76;55.90918;945.8222;;;;
2022/01/27 08:20:33;;;;;;;19;12.3;;;;;;;6.38;51.19043;945.8345;;;;
2022/01/27 08:23:01;;;;;;;13.4;9;;;;;;;5.71;50.98535;945.933;;;;
2022/01/27 08:25:26;;;;;;;21.7;12.7;;;;;;;7.03;47.57617;945.9202;;;;
2022/01/27 08:27:53;;;;;;;43.4;24.1;;;;;;;7.91;44.62109;945.9574;;;;
2022/01/27 08:30:18;;;;;;;37.4;22.6;;;;;;;8.97;43.36621;945.8225;;;;
2022/01/27 08:32:49;;;;;;;16.8;11.5;;;;;;;9.45;41.6377;945.8567;;;;
2022/01/27 08:35:10;;;;;;;18.3;12.3;;;;;;;9.76;41.10938;945.9594;;;;
2022/01/27 08:37:35;;;;;;;21.6;14.4;;;;;;;11.06;37.97559;945.8951;;;;
2022/01/27 08:40:00;;;;;;;16.2;11.4;;;;;;;10.2;40.71777;945.9125;;;;
2022/01/27 08:42:27;;;;;;;15.9;11;;;;;;;10.84;38.88086;945.986;;;;
2022/01/27 08:44:52;;;;;;;15.1;10.2;;;;;;;11.36;38.20703;945.7918;;;;
2022/01/27 08:47:18;;;;;;;14.7;10.3;;;;;;;11.81;36.62012;945.9802;;;;
2022/01/27 08:49:45;;;;;;;12;8.6;;;;;;;12.86;34.48242;945.8801;;;;
2022/01/27 08:52:07;;;;;;;13;8.4;;;;;;;13.43;33.42383;945.8833;;;;
2022/01/27 08:54:35;;;;;;;14.4;9.2;;;;;;;13.53;33.16797;945.89;;;;
2022/01/27 08:57:00;;;;;;;14;8.9;;;;;;;13.23;33.86914;945.9008;;;;
2022/01/27 08:59:25;;;;;;;14.9;9.8;;;;;;;12.83;34.97363;945.9261;;;;
2022/01/27 09:01:50;;;;;;;12.3;8.7;;;;;;;12.98;35.10059;945.8664;;;;
2022/01/27 09:04:17;;;;;;;10.9;7.4;;;;;;;13.27;33.44629;945.7924;;;;
2022/01/27 09:06:42;;;;;;;11.1;7.4;;;;;;;12.63;34.0625;945.8345;;;;
2022/01/27 09:09:09;;;;;;;8.8;5.7;;;;;;;12.05;33.66211;945.8506;;;;
2022/01/27 09:11:34;;;;;;;8.5;5.8;;;;;;;11.16;35.27344;945.8444;;;;
2022/01/27 09:14:01;;;;;;;5;3.4;;;;;;;10.08;36.85156;945.7386;;;;
2022/01/27 09:16:28;;;;;;;4.5;3.7;;;;;;;8.88;39.66016;945.842;;;;
2022/01/27 09:18:54;;;;;;;5;3.5;;;;;;;7.89;41.31641;945.8339;;;;
2022/01/27 09:21:24;;;;;;;5.2;3.2;;;;;;;7.4;43.07227;945.7911;;;;
2022/01/27 09:23:45;;;;;;;4.9;3.5;;;;;;;6.94;45.29004;945.82;;;;
2022/01/27 09:26:37;;;;;;;4.4;3.4;;;;;;;6.07;47.65137;945.8889;;;;
2022/01/27 09:28:36;;;;;;;4.8;3.5;;;;;;;5.72;48.31152;945.8492;;;;
2022/01/27 09:31:04;;;;;;;17.1;4.8;;;;;;;5.58;48.70215;945.8873;;;;
2022/01/27 09:33:29;;;;;;;7.5;4.4;;;;;;;5.53;47.90625;945.845;;;;
2022/01/27 09:35:55;;;;;;;5.1;4.2;;;;;;;5.48;51.09375;945.8856;;;;
2022/01/27 09:38:20;;;;;;;9.3;5.3;;;;;;;5.41;50.5;945.9405;;;;
2022/01/27 09:40:49;;;;;;;12.1;6.5;;;;;;;5.46;50.93359;945.9575;;;;
2022/01/27 09:43:13;;;;;;;8.6;5.6;;;;;;;5.32;52.36133;945.8182;;;;
2022/01/27 09:45:40;;;;;;;11.4;7.6;;;;;;;5.43;51.96875;945.9106;;;;
2022/01/27 09:48:12;;;;;;;14.3;9.5;;;;;;;5.52;51.78711;945.9267;;;;
2022/01/27 09:50:45;;;;;;;11.6;7.6;;;;;;;5.4;53.10449;945.8695;;;;
2022/01/27 09:52:55;;;;;;;11.8;8.1;;;;;;;5.16;52.81543;945.8958;;;;
2022/01/27 09:55:20;;;;;;;12.1;6.8;;;;;;;5.33;50.77246;945.9242;;;;
2022/01/27 09:57:47;;;;;;;10.3;6.6;;;;;;;5.44;53.4248;945.9519;;;;
2022/01/27 10:00:12;;;;;;;10.9;6.9;;;;;;;5.45;51.44043;945.92;;;;
2022/01/27 10:02:39;;;;;;;9.9;6.5;;;;;;;5.49;50.98242;945.9533;;;;
2022/01/27 10:05:02;;;;;;;7.2;5.5;;;;;;;5.52;51.09863;945.892;;;;
2022/01/27 10:07:29;;;;;;;9;5.9;;;;;;;5.29;52.05273;945.8635;;;;
2022/01/27 10:09:58;;;;;;;6.4;4.8;;;;;;;4.71;52.52246;945.8853;;;;
2022/01/27 10:12:23;;;;;;;7.4;3.4;;;;;;;5.14;48.96777;945.8437;;;;
2022/01/27 10:14:50;;;;;;;4.7;3.1;;;;;;;5.28;49.22168;945.8039;;;;
2022/01/27 10:17:18;;;;;;;33.5;9.4;;;;;;;5.42;48.66113;945.8603;;;;
2022/01/27 10:19:49;;;;;;;8.3;3.9;;;;;;;5.45;50.82129;945.8239;;;;
2022/01/27 10:22:15;;;;;;;6.1;3.4;;;;;;;5.5;49.86621;945.8194;;;;
2022/01/27 10:24:40;;;;;;;4.6;2.8;;;;;;;5.58;49.09766;945.8298;;;;
2022/01/27 10:27:15;;;;;;;5.1;3;;;;;;;5.6;50.6123;945.7991;;;;
2022/01/27 10:29:47;;;;;;;4.8;2.8;;;;;;;5.78;49.27832;945.7717;;;;
2022/01/27 10:31:59;;;;;;;5.1;2.8;;;;;;;5.84;48.77734;945.6897;;;;
2022/01/27 10:34:25;;;;;;;4.8;2.6;;;;;;;5.89;49.24512;945.6867;;;;
2022/01/27 10:36:51;;;;;;;4.3;2.6;;;;;;;6.04;47.60156;945.6923;;;;
2022/01/27 10:39:17;;;;;;;7.6;3.3;;;;;;;6.2;47.00977;945.6755;;;;
2022/01/27 10:41:46;;;;;;;9.6;3.1;;;;;;;6.31;48.29883;945.6318;;;;
2022/01/27 10:44:13;;;;;;;14;3.9;;;;;;;6.29;47.55078;945.5891;;;;
2022/01/27 10:46:45;;;;;;;12.7;3.6;;;;;;;6.18;47.44824;945.5491;;;;
2022/01/27 10:49:10;;;;;;;6.8;3.1;;;;;;;6;47.48438;945.5555;;;;
2022/01/27 10:51:37;;;;;;;5.7;2.2;;;;;;;5.96;47.26465;945.4172;;;;
2022/01/27 10:54:01;;;;;;;8.7;2.8;;;;;;;5.83;46.54004;945.5502;;;;
2022/01/27 10:56:23;;;;;;;7.5;2.6;;;;;;;6.04;46.37012;945.4419;;;;
2022/01/27 10:58:48;;;;;;;4.5;2;;;;;;;6.26;45.22949;945.4702;;;;
2022/01/27 11:01:13;;;;;;;12.2;3.5;;;;;;;6.24;44.48145;945.3967;;;;
2022/01/27 11:03:38;;;;;;;11.3;3.6;;;;;;;6.42;44.35352;945.3741;;;;
2022/01/27 11:06:03;;;;;;;13.6;3.7;;;;;;;6.7;45.28711;945.2823;;;;
2022/01/27 11:08:30;;;;;;;17.4;5;;;;;;;6.87;44.60352;945.2878;;;;
2022/01/27 11:10:55;;;;;;;9.2;3.7;;;;;;;6.63;43.44727;945.1842;;;;
2022/01/27 11:13:23;;;;;;;5.7;2.5;;;;;;;6.83;45.68652;945.0618;;;;
2022/01/27 11:15:45;;;;;;;4;2.2;;;;;;;6.94;42.94629;945.0672;;;;
2022/01/27 11:18:17;;;;;;;4.8;2.5;;;;;;;7.04;43.23926;945.1223;;;;
2022/01/27 11:20:54;;;;;;;7.1;3.1;;;;;;;7.14;43.34082;945.0122;;;;
2022/01/27 11:23:45;;;;;;;10.9;4.3;;;;;;;7.26;42.69531;945.0061;;;;
2022/01/27 11:25:52;;;;;;;8.2;3.2;;;;;;;7.36;43.28418;944.8787;;;;
2022/01/27 11:27:59;;;;;;;11.4;3.7;;;;;;;7.42;43.27832;944.8769;;;;
2022/01/27 11:30:23;;;;;;;11.2;4.3;;;;;;;7.33;41.55859;944.8906;;;;
2022/01/27 11:32:51;;;;;;;8.5;3.5;;;;;;;7.34;42.1377;944.8432;;;;
2022/01/27 11:35:16;;;;;;;11.6;3.4;;;;;;;7.35;41.08301;944.7603;;;;
2022/01/27 11:37:41;;;;;;;6.6;3;;;;;;;7.41;40.53418;944.692;;;;
2022/01/27 11:40:09;;;;;;;7;3.9;;;;;;;7.49;40.39453;944.6256;;;;
2022/01/27 11:42:34;;;;;;;19.1;5.2;;;;;;;7.68;41.24023;944.6128;;;;
2022/01/27 11:45:01;;;;;;;16.2;8.4;;;;;;;7.75;39.2168;944.5838;;;;
2022/01/27 11:47:32;;;;;;;24.2;10.2;;;;;;;7.74;39.96387;944.5479;;;;
2022/01/27 11:49:56;;;;;;;12.5;5;;;;;;;7.89;40.12598;944.4886;;;;
2022/01/27 11:52:17;;;;;;;11.5;3.2;;;;;;;8.13;38.67188;944.4108;;;;
2022/01/27 11:54:42;;;;;;;5.8;2.4;;;;;;;8.33;39.80371;944.3834;;;;
2022/01/27 11:57:43;;;;;;;7.1;2.6;;;;;;;9.78;35.91309;944.1918;;;;
2022/01/27 12:00:08;;;;;;;5.8;1.9;;;;;;;11.9;33.3418;944.2072;;;;
2022/01/27 12:02:33;;;;;;;5.4;1.6;;;;;;;14.43;29.74609;944.1453;;;;
2022/01/27 12:04:59;;;;;;;5.8;1.8;;;;;;;16.07;27.0127;944.1141;;;;
2022/01/27 12:07:24;;;;;;;2.9;1.3;;;;;;;17.71;24.65332;944.0073;;;;
2022/01/27 12:09:53;;;;;;;2.9;1.3;;;;;;;20.04;22.42676;943.9319;;;;
2022/01/27 12:12:25;;;;;;;4.8;1.1;;;;;;;21.6;20.46777;943.9952;;;;
2022/01/27 12:14:41;;;;;;;6.4;2;;;;;;;22.79;19.11426;943.8261;;;;
2022/01/27 12:17:06;;;;;;;4.8;1.6;;;;;;;21.84;19.94043;943.8333;;;;
2022/01/27 12:19:31;;;;;;;14.5;3;;;;;;;21.36;19.33398;943.8878;;;;
2022/01/27 12:21:59;;;;;;;3.9;1.4;;;;;;;20.82;20.2334;943.6686;;;;
2022/01/27 12:24:23;;;;;;;14.7;1.9;;;;;;;22.03;19.89063;943.7645;;;;
2022/01/27 12:26:52;;;;;;;2.9;0.9;;;;;;;24;17.80078;943.5742;;;;
2022/01/27 12:29:20;;;;;;;3.2;0.8;;;;;;;24.53;16.49023;943.5779;;;;
2022/01/27 12:31:46;;;;;;;4.9;1.1;;;;;;;25.69;15.72949;943.5192;;;;
2022/01/27 12:34:11;;;;;;;0.9;0.7;;;;;;;26.5;15.43848;943.5557;;;;
2022/01/27 12:36:37;;;;;;;5.8;1.8;;;;;;;27.08;14.83008;943.3083;;;;
2022/01/27 12:39:02;;;;;;;1.4;0.8;;;;;;;27.07;14.41406;943.3081;;;;
2022/01/27 12:41:28;;;;;;;1.6;0.8;;;;;;;26.44;14.14551;943.3397;;;;
2022/01/27 12:43:56;;;;;;;0.7;0.5;;;;;;;27.08;14.56934;943.3476;;;;
2022/01/27 12:46:19;;;;;;;2.2;1.2;;;;;;;27.39;13.71289;943.363;;;;
2022/01/27 12:48:46;;;;;;;1.1;0.7;;;;;;;26.67;14.63867;943.2825;;;;
2022/01/27 12:51:09;;;;;;;0.7;0.7;;;;;;;24.64;15.64551;943.2712;;;;
2022/01/27 12:53:36;;;;;;;3;1;;;;;;;25.45;16.20508;943.4542;;;;
2022/01/27 12:56:02;;;;;;;6.1;1.8;;;;;;;24.21;16.52539;943.3857;;;;
2022/01/27 12:58:27;;;;;;;3.7;1.6;;;;;;;22.21;18.44434;943.3925;;;;
2022/01/27 13:00:52;;;;;;;2.9;1.6;;;;;;;23.06;17.7041;943.3641;;;;
2022/01/27 13:03:18;;;;;;;1.3;0.8;;;;;;;23.15;16.58008;943.2297;;;;
2022/01/27 13:05:43;;;;;;;0.8;0.7;;;;;;;22.28;17.53223;943.3146;;;;
2022/01/27 13:08:10;;;;;;;0.8;0.8;;;;;;;21.86;18.07813;943.0258;;;;
2022/01/27 13:10:35;;;;;;;1.1;0.8;;;;;;;20.84;18.88965;943.2354;;;;
2022/01/27 13:13:04;;;;;;;2.2;0.9;;;;;;;21.04;18.91016;943.283;;;;
2022/01/27 13:15:31;;;;;;;1.9;0.8;;;;;;;19.71;19.4834;943.175;;;;
2022/01/27 13:17:59;;;;;;;1.2;0.7;;;;;;;19.05;20.43164;943.0097;;;;
2022/01/27 13:20:25;;;;;;;2;0.8;;;;;;;20.13;19.44336;943.0158;;;;
2022/01/27 13:22:48;;;;;;;1;0.7;;;;;;;20.33;18.96191;943.0856;;;;
2022/01/27 13:25:14;;;;;;;1.9;0.8;;;;;;;21.13;18.67969;943.1262;;;;
2022/01/27 13:27:38;;;;;;;0.7;0.7;;;;;;;20.65;19.0918;943.0829;;;;
2022/01/27 13:30:06;;;;;;;1.6;1;;;;;;;19.38;20.07422;943.0264;;;;
2022/01/27 13:32:31;;;;;;;0.8;0.6;;;;;;;20.57;19.27539;943.0286;;;;
2022/01/27 13:34:56;;;;;;;1.8;0.8;;;;;;;21.45;18.88086;943.0959;;;;
2022/01/27 13:37:21;;;;;;;1.1;0.6;;;;;;;19.78;20.02246;943.05;;;;
2022/01/27 13:41:19;;;;;;;1.4;0.6;;;;;;;20.43;20.12207;943.0801;;;;
2022/01/27 13:42:13;;;;;;;2.6;0.9;;;;;;;20.11;20.08496;943.1106;;;;
2022/01/27 13:44:38;;;;;;;2.6;1.1;;;;;;;19.53;21.23535;943.0878;;;;
2022/01/27 13:47:03;;;;;;;1.4;1;;;;;;;19.84;21.06348;943.0783;;;;
2022/01/27 13:49:32;;;;;;;2.3;0.9;;;;;;;18.02;22.32422;943.2096;;;;
2022/01/27 13:51:55;;;;;;;1.7;0.9;;;;;;;18.43;22.19336;943.115;;;;
2022/01/27 13:54:22;;;;;;;1.4;0.9;;;;;;;18.86;21.80762;942.988;;;;
2022/01/27 13:56:49;;;;;;;1.2;0.7;;;;;;;20.53;20.36035;943.0602;;;;
2022/01/27 13:59:15;;;;;;;2.8;0.9;;;;;;;20.42;20.9043;943.0591;;;;
2022/01/27 14:01:38;;;;;;;1.7;0.8;;;;;;;21.01;20.13672;943.1068;;;;
2022/01/27 14:04:03;;;;;;;1.6;0.7;;;;;;;20.51;20.38281;943.0734;;;;
2022/01/27 14:06:29;;;;;;;1.8;1.1;;;;;;;20.69;19.46777;943.1252;;;;
2022/01/27 14:08:57;;;;;;;2.1;1;;;;;;;18.39;22.38965;942.9789;;;;
2022/01/27 14:11:20;;;;;;;1.1;0.6;;;;;;;18.7;22.33594;943.0272;;;;
2022/01/27 14:13:44;;;;;;;1.4;0.9;;;;;;;19.3;21.8418;943.1463;;;;
2022/01/27 14:16:09;;;;;;;4.2;1.4;;;;;;;20.36;20.62109;943.1795;;;;
2022/01/27 14:18:35;;;;;;;1.1;0.9;;;;;;;20.93;19.37305;943.1864;;;;
2022/01/27 14:21:02;;;;;;;0.8;0.8;;;;;;;21.71;18.96289;943.1106;;;;
2022/01/27 14:23:25;;;;;;;2;0.9;;;;;;;20.75;19.59863;943.1334;;;;
2022/01/27 14:25:56;;;;;;;1.2;0.6;;;;;;;21.7;19.11426;943.277;;;;
2022/01/27 14:28:18;;;;;;;2.4;1.2;;;;;;;21.88;18.77051;943.2703;;;;
2022/01/27 14:30:43;;;;;;;2.3;1.3;;;;;;;23.18;18.14355;943.2516;;;;